createdAt,value
2022-09-05T00:02:02.324Z,102002.78
2022-09-05T00:05:09.692Z,101995.16
2022-09-05T00:08:27.412Z,101998.84
2022-09-05T00:11:49.836Z,101992.88
2022-09-05T00:15:17.647Z,101984.88
2022-09-05T00:20:57.189Z,101991.97
2022-09-05T00:24:26.253Z,101991.31
2022-09-05T00:25:00.719Z,101984.22
2022-09-05T00:28:26.204Z,101978.75
2022-09-05T00:31:55.065Z,101989.97
2022-09-05T00:34:47.812Z,101985.09
2022-09-05T00:37:32.468Z,101987.09
2022-09-05T00:40:22.533Z,101983.81
2022-09-05T00:43:21.469Z,101982.75
2022-09-05T00:46:05.980Z,101979.38
2022-09-05T00:48:58.508Z,101987.31
2022-09-05T00:51:53.246Z,101985.75
2022-09-05T00:55:13.315Z,101977.00
2022-09-05T00:58:23.165Z,101980.75
2022-09-05T01:01:01.316Z,101980.72
2022-09-05T01:03:43.419Z,101977.34
2022-09-05T01:06:58.452Z,101978.84
2022-09-05T01:10:04.567Z,101983.88
2022-09-05T01:13:10.406Z,101985.16
2022-09-05T01:16:08.439Z,101980.13
2022-09-05T01:18:50.541Z,101976.78
2022-09-05T01:21:53.676Z,101988.97
2022-09-05T01:24:28.537Z,101973.50
2022-09-05T01:28:43.561Z,101978.75
2022-09-05T01:30:48.732Z,101983.75
2022-09-05T01:33:43.183Z,101978.19
2022-09-05T01:36:28.756Z,101986.06
2022-09-05T01:40:12.205Z,101980.22
2022-09-05T01:42:23.121Z,101986.94
2022-09-05T01:45:41.056Z,101977.56
2022-09-05T01:48:31.383Z,101973.19
2022-09-05T01:51:39.763Z,101970.91
2022-09-05T01:54:55.934Z,101970.81
2022-09-05T01:57:59.275Z,101980.84
2022-09-05T02:01:30.154Z,101982.47
2022-09-05T02:04:38.859Z,101987.91
2022-09-05T02:08:00.755Z,101988.94
2022-09-05T02:11:08.464Z,101991.28
2022-09-05T02:13:35.316Z,101981.25
2022-09-05T02:16:35.266Z,101984.84
2022-09-05T02:19:14.916Z,101983.78
2022-09-05T02:22:00.127Z,101978.56
2022-09-05T02:24:33.190Z,101975.44
2022-09-05T02:28:02.205Z,101986.97
2022-09-05T02:30:20.592Z,101982.97
2022-09-05T02:33:21.551Z,101982.13
2022-09-05T02:36:09.589Z,101978.16
2022-09-05T02:45:01.182Z,101990.47
2022-09-05T02:45:02.858Z,101982.56
2022-09-05T02:45:28.072Z,101972.34
2022-09-05T02:48:27.593Z,101976.09
2022-09-05T02:57:25.866Z,101978.81
2022-09-05T02:57:40.796Z,101982.56
2022-09-05T02:58:05.188Z,101981.75
2022-09-05T03:00:50.956Z,101984.25
2022-09-05T03:03:27.402Z,101975.47
2022-09-05T03:06:08.420Z,101981.59
2022-09-05T03:09:09.839Z,101987.91
2022-09-05T03:12:28.273Z,101990.13
2022-09-05T03:15:22.635Z,101993.53
2022-09-05T03:18:45.714Z,101995.16
2022-09-05T03:21:53.875Z,101987.91
2022-09-05T03:25:11.921Z,101994.38
2022-09-05T03:28:21.660Z,101992.72
2022-09-05T03:31:22.702Z,101992.06
2022-09-05T03:34:19.749Z,101998.53
2022-09-05T03:37:17.863Z,101990.63
2022-09-05T03:39:53.883Z,101992.28
2022-09-05T03:43:21.842Z,101989.38
2022-09-05T03:45:53.160Z,101994.78
2022-09-05T03:48:28.709Z,101988.94
2022-09-05T03:56:30.991Z,101997.50
2022-09-05T03:57:20.587Z,101998.97
2022-09-05T03:58:16.758Z,101997.72
2022-09-05T04:04:07.124Z,101991.47
2022-09-05T04:08:18.930Z,101996.06
2022-09-05T04:08:28.338Z,101984.38
2022-09-05T04:10:33.305Z,101991.91
2022-09-05T04:13:14.727Z,101996.47
2022-09-05T04:15:48.585Z,101992.72
2022-09-05T04:18:33.270Z,102000.44
2022-09-05T04:21:18.991Z,102001.69
2022-09-05T04:24:08.070Z,101993.97
2022-09-05T04:27:06.461Z,102001.06
2022-09-05T04:30:02.525Z,102001.06
2022-09-05T04:33:05.515Z,102001.31
2022-09-05T04:35:53.282Z,102003.81
2022-09-05T04:38:40.236Z,102000.69
2022-09-05T04:41:39.030Z,101997.16
2022-09-05T04:44:27.211Z,101994.84
2022-09-05T04:47:18.938Z,102006.53
2022-09-05T04:50:11.531Z,102000.91
2022-09-05T04:52:57.267Z,102006.94
2022-09-05T04:55:28.093Z,102011.13
2022-09-05T04:58:10.204Z,102019.66
2022-09-05T05:06:01.715Z,102015.06
2022-09-05T05:06:12.238Z,102016.72
2022-09-05T05:06:45.524Z,102015.28
2022-09-05T05:09:44.429Z,102008.59
2022-09-05T05:17:58.023Z,102007.78
2022-09-05T05:18:15.328Z,102015.91
2022-09-05T05:18:48.331Z,102021.13
2022-09-05T05:21:26.777Z,102014.84
2022-09-05T05:24:01.001Z,102015.47
2022-09-05T05:26:47.723Z,102015.47
2022-09-05T05:29:33.621Z,102016.31
2022-09-05T05:32:05.843Z,102010.28
2022-09-05T05:34:41.561Z,102010.28
2022-09-05T05:37:29.800Z,102010.06
2022-09-05T05:40:16.068Z,102009.66
2022-09-05T05:42:45.340Z,102019.44
2022-09-05T05:45:29.163Z,102014.84
2022-09-05T05:48:32.582Z,102014.00
2022-09-05T05:51:17.591Z,102015.03
2022-09-05T05:53:59.364Z,102010.66
2022-09-05T05:56:57.939Z,102006.47
2022-09-05T06:00:28.062Z,102016.50
2022-09-05T06:03:33.498Z,102015.66
2022-09-05T06:07:00.759Z,102021.69
2022-09-05T06:14:49.449Z,102022.75
2022-09-05T06:14:56.701Z,102031.28
2022-09-05T06:16:38.194Z,102030.19
2022-09-05T06:20:39.229Z,102037.47
2022-09-05T06:23:37.362Z,102028.22
2022-09-05T06:26:49.849Z,102032.56
2022-09-05T06:29:36.571Z,102033.53
2022-09-05T06:32:26.352Z,102032.41
2022-09-05T06:35:09.138Z,102039.00
2022-09-05T06:38:03.830Z,102036.81
2022-09-05T06:41:34.649Z,102039.44
2022-09-05T06:44:35.563Z,102045.13
2022-09-05T06:47:22.606Z,102046.38
2022-09-05T06:50:24.180Z,102045.53
2022-09-05T06:53:32.801Z,102047.97
2022-09-05T06:56:28.640Z,102055.78
2022-09-05T06:59:43.824Z,102054.97
2022-09-05T07:02:28.618Z,102052.09
2022-09-05T07:05:40.112Z,102045.53
2022-09-05T07:08:36.285Z,102049.91
2022-09-05T07:11:19.218Z,102044.13
2022-09-05T07:14:20.531Z,102043.97
2022-09-05T07:17:06.898Z,102045.22
2022-09-05T07:19:57.287Z,102042.00
2022-09-05T07:22:49.870Z,102046.38
2022-09-05T07:25:22.959Z,102043.38
2022-09-05T07:28:29.249Z,102045.31
2022-09-05T07:31:02.865Z,102044.47
2022-09-05T07:33:31.656Z,102043.06
2022-09-05T07:36:17.587Z,102042.31
2022-09-05T07:39:02.317Z,102049.56
2022-09-05T07:41:42.279Z,102045.19
2022-09-05T07:44:20.946Z,102041.94
2022-09-05T07:46:58.734Z,102041.91
2022-09-05T07:49:31.286Z,102053.69
2022-09-05T07:56:59.132Z,102042.41
2022-09-05T07:57:10.687Z,102045.84
2022-09-05T07:57:44.131Z,102044.94
2022-09-05T08:00:27.022Z,102048.53
2022-09-05T08:03:09.395Z,102052.41
2022-09-05T08:05:44.826Z,102059.03
2022-09-05T08:08:30.698Z,102055.53
2022-09-05T08:11:25.218Z,102059.94
2022-09-05T08:14:43.247Z,102057.81
2022-09-05T08:16:59.444Z,102057.56
2022-09-05T08:20:08.674Z,102059.56
2022-09-05T08:22:52.266Z,102068.69
2022-09-05T08:25:57.625Z,102070.63
2022-09-05T08:28:39.104Z,102066.03
2022-09-05T08:31:24.330Z,102063.34
2022-09-05T08:33:56.925Z,102070.84
2022-09-05T08:36:49.188Z,102072.88
2022-09-05T08:39:21.903Z,102067.19
2022-09-05T08:42:03.386Z,102066.16
2022-09-05T08:46:42.970Z,102069.53
2022-09-05T08:48:16.040Z,102063.38
2022-09-05T08:51:21.308Z,102056.66
2022-09-05T08:54:20.049Z,102055.16
2022-09-05T08:57:11.123Z,102052.28
2022-09-05T09:00:18.712Z,102055.13
2022-09-05T09:03:12.512Z,102042.84
2022-09-05T09:06:13.344Z,102055.88
2022-09-05T09:09:06.787Z,102038.59
2022-09-05T09:11:39.404Z,102044.66
2022-09-05T09:14:45.653Z,102046.81
2022-09-05T09:17:45.338Z,102036.78
2022-09-05T09:20:14.110Z,102029.97
2022-09-05T09:22:56.054Z,102023.63
2022-09-05T09:25:39.467Z,102028.19
2022-09-05T09:28:49.514Z,102034.31
2022-09-05T09:31:43.493Z,102021.84
2022-09-05T09:34:25.636Z,102023.50
2022-09-05T09:37:14.837Z,102024.53
2022-09-05T09:40:19.221Z,102016.28
2022-09-05T09:43:29.900Z,102006.78
2022-09-05T09:46:30.428Z,102006.22
2022-09-05T09:49:42.141Z,102002.09
2022-09-05T09:52:43.214Z,102003.94
2022-09-05T09:56:06.707Z,101991.09
2022-09-05T09:59:13.957Z,101991.78
2022-09-05T10:06:03.187Z,101987.91
2022-09-05T10:10:36.155Z,101984.19
2022-09-05T10:10:51.342Z,101977.34
2022-09-05T10:12:33.164Z,101975.06
2022-09-05T10:15:37.987Z,101974.78
2022-09-05T10:18:42.739Z,101973.13
2022-09-05T10:21:32.298Z,101977.72
2022-09-05T10:24:52.764Z,101982.78
2022-09-05T10:28:27.255Z,101967.50
2022-09-05T10:32:24.566Z,101961.16
2022-09-05T10:35:17.775Z,101959.59
2022-09-05T10:37:15.158Z,101955.41
2022-09-05T10:39:50.939Z,101951.53
2022-09-05T10:42:43.510Z,101951.56
2022-09-05T10:46:01.013Z,101961.56
2022-09-05T10:48:55.272Z,101959.31
2022-09-05T10:51:44.342Z,101954.47
2022-09-05T10:54:47.169Z,101955.13
2022-09-05T10:57:43.050Z,101950.56
2022-09-05T11:02:26.639Z,101952.38
2022-09-05T11:04:06.989Z,101951.22
2022-09-05T11:06:43.134Z,101948.69
2022-09-05T11:09:28.224Z,101952.03
2022-09-05T11:12:14.858Z,101940.53
2022-09-05T11:14:51.229Z,101944.72
2022-09-05T11:17:44.367Z,101945.19
2022-09-05T11:20:40.666Z,101934.63
2022-09-05T11:23:30.829Z,101938.28
2022-09-05T11:26:07.724Z,101933.38
2022-09-05T11:29:00.737Z,101928.53
2022-09-05T11:32:25.404Z,101935.59
2022-09-05T11:39:49.112Z,101936.25
2022-09-05T11:39:52.305Z,101937.13
2022-09-05T11:42:04.924Z,101945.94
2022-09-05T11:45:19.123Z,101942.25
2022-09-05T11:48:26.202Z,101937.59
2022-09-05T11:51:47.055Z,101938.25
2022-09-05T11:54:57.697Z,101926.16
2022-09-05T11:57:54.816Z,101930.25
2022-09-05T12:00:34.525Z,101924.03
2022-09-05T12:03:56.486Z,101915.81
2022-09-05T12:06:49.757Z,101922.09
2022-09-05T12:09:53.447Z,101908.34
2022-09-05T12:12:58.343Z,101912.00
2022-09-05T12:15:37.478Z,101910.69
2022-09-05T12:18:43.587Z,101909.25
2022-09-05T12:21:44.757Z,101911.88
2022-09-05T12:25:26.534Z,101913.81
2022-09-05T12:27:36.476Z,101919.69
2022-09-05T12:30:15.768Z,101915.34
2022-09-05T12:35:52.935Z,101918.13
2022-09-05T12:40:19.782Z,101915.81
2022-09-05T12:41:33.047Z,101912.22
2022-09-05T12:44:38.636Z,101907.28
2022-09-05T12:46:23.762Z,101902.88
2022-09-05T12:49:06.906Z,101903.38
2022-09-05T12:51:45.884Z,101907.69
2022-09-05T12:54:34.729Z,101904.16
2022-09-05T12:59:19.653Z,101890.97
2022-09-05T13:02:58.336Z,101911.59
2022-09-05T13:03:26.797Z,101904.47
2022-09-05T13:06:09.215Z,101899.41
2022-09-05T13:09:03.817Z,101901.03
2022-09-05T13:14:53.867Z,101900.94
2022-09-05T13:15:23.187Z,101902.56
2022-09-05T13:18:17.126Z,101898.00
2022-09-05T13:21:10.338Z,101896.88
2022-09-05T13:24:11.962Z,101899.75
2022-09-05T13:26:50.067Z,101893.66
2022-09-05T13:29:20.126Z,101892.22
2022-09-05T13:37:56.246Z,101887.91
2022-09-05T13:38:04.721Z,101890.44
2022-09-05T13:41:04.288Z,101892.13
2022-09-05T13:43:38.106Z,101887.34
2022-09-05T13:46:10.626Z,101885.38
2022-09-05T13:49:26.918Z,101880.44
2022-09-05T13:52:05.606Z,101878.28
2022-09-05T13:54:51.263Z,101882.19
2022-09-05T13:57:45.205Z,101879.63
2022-09-05T14:00:26.716Z,101879.09
2022-09-05T14:03:47.677Z,101872.34
2022-09-05T14:07:44.064Z,101867.91
2022-09-05T14:10:08.017Z,101866.56
2022-09-05T14:13:02.678Z,101876.84
2022-09-05T14:15:52.380Z,101864.50
2022-09-05T14:18:52.891Z,101864.72
2022-09-05T14:21:21.084Z,101864.53
2022-09-05T14:24:04.709Z,101857.34
2022-09-05T14:26:43.027Z,101857.75
2022-09-05T14:29:13.891Z,101858.25
2022-09-05T14:37:36.916Z,101851.38
2022-09-05T14:37:41.620Z,101855.59
2022-09-05T14:38:44.063Z,101844.81
2022-09-05T14:42:07.264Z,101849.09
2022-09-05T14:44:50.408Z,101837.91
2022-09-05T14:47:47.948Z,101835.75
2022-09-05T14:50:52.199Z,101835.25
2022-09-05T14:56:33.345Z,101820.34
2022-09-05T15:02:43.898Z,101827.47
2022-09-05T15:02:53.746Z,101824.09
2022-09-05T15:05:13.744Z,101820.19
2022-09-05T15:07:44.211Z,101828.19
2022-09-05T15:12:14.754Z,101821.38
2022-09-05T15:13:20.261Z,101819.75
2022-09-05T15:16:02.577Z,101816.06
2022-09-05T15:18:44.612Z,101825.72
2022-09-05T15:21:33.625Z,101815.66
2022-09-05T15:24:23.681Z,101821.50
2022-09-05T15:26:58.459Z,101814.22
2022-09-05T15:29:27.831Z,101813.00
2022-09-05T15:32:21.334Z,101810.63
2022-09-05T15:34:54.394Z,101802.72
2022-09-05T15:37:37.636Z,101803.63
2022-09-05T15:40:22.976Z,101808.66
2022-09-05T15:42:55.896Z,101803.09
2022-09-05T15:45:36.624Z,101803.72
2022-09-05T15:48:18.293Z,101795.91
2022-09-05T15:50:59.003Z,101791.63
2022-09-05T15:53:36.391Z,101790.81
2022-09-05T15:56:19.497Z,101786.72
2022-09-05T15:58:55.156Z,101789.47
2022-09-05T16:01:59.006Z,101778.53
2022-09-05T16:07:58.450Z,101775.38
2022-09-05T16:10:42.750Z,101776.09
2022-09-05T16:10:49.080Z,101778.75
2022-09-05T16:13:19.318Z,101782.44
2022-09-05T16:20:06.556Z,101764.38
2022-09-05T16:23:24.935Z,101769.09
2022-09-05T16:23:31.435Z,101766.66
2022-09-05T16:24:59.275Z,101762.75
2022-09-05T16:28:01.213Z,101770.94
2022-09-05T16:30:33.355Z,101767.44
2022-09-05T16:33:24.381Z,101761.06
2022-09-05T16:36:15.984Z,101765.97
2022-09-05T16:38:56.899Z,101769.84
2022-09-05T16:41:50.285Z,101762.66
2022-09-05T16:44:45.676Z,101754.56
2022-09-05T16:47:29.692Z,101759.94
2022-09-05T16:50:16.479Z,101765.25
2022-09-05T16:52:53.641Z,101761.97
2022-09-05T16:55:54.216Z,101763.00
2022-09-05T16:58:39.161Z,101755.22
2022-09-05T17:01:35.525Z,101750.69
2022-09-05T17:04:29.151Z,101746.63
2022-09-05T17:07:14.400Z,101743.50
2022-09-05T17:09:43.950Z,101744.34
2022-09-05T17:12:20.131Z,101742.69
2022-09-05T17:14:57.952Z,101738.59
2022-09-05T17:18:22.459Z,101742.09
2022-09-05T17:20:30.689Z,101732.56
2022-09-05T17:29:11.442Z,101743.09
2022-09-05T17:29:18.858Z,101736.41
2022-09-05T17:29:36.537Z,101726.84
2022-09-05T17:31:55.205Z,101720.53
2022-09-05T17:35:16.605Z,101719.63
2022-09-05T17:38:28.418Z,101716.56
2022-09-05T17:41:23.380Z,101726.06
2022-09-05T17:44:06.321Z,101721.81
2022-09-05T17:46:35.242Z,101727.63
2022-09-05T17:49:20.048Z,101725.84
2022-09-05T17:52:18.175Z,101728.06
2022-09-05T17:54:49.576Z,101733.72
2022-09-05T17:57:33.138Z,101732.44
2022-09-05T18:00:10.347Z,101730.28
2022-09-05T18:02:56.320Z,101732.50
2022-09-05T18:05:54.890Z,101728.31
2022-09-05T18:08:46.414Z,101725.59
2022-09-05T18:11:25.669Z,101732.63
2022-09-05T18:13:58.008Z,101730.22
2022-09-05T18:17:36.651Z,101729.44
2022-09-05T18:19:49.407Z,101729.53
2022-09-05T18:22:39.431Z,101733.19
2022-09-05T18:25:30.842Z,101728.88
2022-09-05T18:28:28.202Z,101735.84
2022-09-05T18:31:41.002Z,101729.78
2022-09-05T18:34:24.477Z,101733.19
2022-09-05T18:36:59.042Z,101733.06
2022-09-05T18:39:26.000Z,101732.00
2022-09-05T18:42:25.962Z,101731.75
2022-09-05T18:45:14.661Z,101729.00
2022-09-05T18:47:57.272Z,101727.97
2022-09-05T18:50:32.576Z,101728.22
2022-09-05T18:53:10.158Z,101729.66
2022-09-05T18:56:10.030Z,101734.31
2022-09-05T18:59:09.921Z,101729.91
2022-09-05T19:01:48.335Z,101737.09
2022-09-05T19:04:40.850Z,101729.94
2022-09-05T19:07:14.196Z,101731.06
2022-09-05T19:10:34.354Z,101747.31
2022-09-05T19:13:08.227Z,101739.41
2022-09-05T19:15:48.437Z,101754.56
2022-09-05T19:18:26.101Z,101753.50
2022-09-05T19:21:12.717Z,101758.47
2022-09-05T19:24:04.694Z,101758.22
2022-09-05T19:26:35.855Z,101758.22
2022-09-05T19:36:51.244Z,101769.84
2022-09-05T19:36:57.861Z,101760.19
2022-09-05T19:37:07.382Z,101773.97
2022-09-05T19:37:48.136Z,101806.66
2022-09-05T19:47:28.681Z,101793.75
2022-09-05T19:47:39.849Z,101818.50
2022-09-05T19:47:44.056Z,101803.94
2022-09-05T19:49:13.620Z,101810.81
2022-09-05T19:51:42.528Z,101810.25
2022-09-05T19:54:32.255Z,101813.28
2022-09-05T19:57:05.300Z,101815.75
2022-09-05T19:59:41.515Z,101813.81
2022-09-05T20:02:22.367Z,101819.59
2022-09-05T20:04:53.289Z,101812.44
2022-09-05T20:07:27.059Z,101817.41
2022-09-05T20:09:57.134Z,101818.50
2022-09-05T20:12:34.729Z,101827.28
2022-09-05T20:15:27.792Z,101818.78
2022-09-05T20:18:28.093Z,101823.72
2022-09-05T20:21:08.255Z,101827.84
2022-09-05T20:23:45.085Z,101814.88
2022-09-05T20:26:12.535Z,101805.53
2022-09-05T20:28:41.346Z,101801.47
2022-09-05T20:31:25.065Z,101814.94
2022-09-05T20:35:51.617Z,101814.38
2022-09-05T20:43:11.113Z,101811.88
2022-09-05T20:43:31.715Z,101823.13
2022-09-05T20:43:33.016Z,101816.53
2022-09-05T20:46:16.102Z,101821.19
2022-09-05T20:54:09.449Z,101819.25
2022-09-05T20:54:19.243Z,101829.91
2022-09-05T20:54:34.956Z,101829.13
2022-09-05T20:57:22.870Z,101828.31
2022-09-05T20:59:49.969Z,101835.69
2022-09-05T21:02:23.365Z,101836.22
2022-09-05T21:05:21.498Z,101824.97
2022-09-05T21:07:59.513Z,101825.50
2022-09-05T21:10:56.582Z,101827.97
2022-09-05T21:13:37.238Z,101842.50
2022-09-05T21:16:21.237Z,101860.03
2022-09-05T21:18:51.540Z,101870.34
2022-09-05T21:21:30.145Z,101861.34
2022-09-05T21:24:17.397Z,101855.75
2022-09-05T21:26:51.408Z,101865.31
2022-09-05T21:29:32.356Z,101891.59
2022-09-05T21:32:10.594Z,101898.16
2022-09-05T21:34:48.399Z,101876.22
2022-09-05T21:37:17.638Z,101878.97
2022-09-05T21:39:59.152Z,101878.56
2022-09-05T21:46:14.250Z,101870.44
2022-09-05T21:47:44.281Z,101860.66
2022-09-05T21:48:15.639Z,101843.53
2022-09-05T21:50:51.063Z,101834.63
2022-09-05T21:58:37.594Z,101821.19
2022-09-05T21:59:25.913Z,101811.88
2022-09-05T21:59:29.036Z,101815.09
2022-09-05T22:01:54.597Z,101804.31
2022-09-05T22:04:21.895Z,101795.72
2022-09-05T22:06:50.116Z,101792.38
2022-09-05T22:09:19.504Z,101791.81
2022-09-05T22:11:50.164Z,101786.78
2022-09-05T22:14:23.574Z,101792.88
2022-09-05T22:16:56.685Z,101790.47
2022-09-05T22:19:37.812Z,101799.47
2022-09-05T22:22:17.500Z,101796.00
2022-09-05T22:24:52.569Z,101784.69
2022-09-05T22:27:20.642Z,101781.84
2022-09-05T22:29:50.635Z,101781.69
2022-09-05T22:32:34.456Z,101775.59
2022-09-05T22:35:27.170Z,101771.25
2022-09-05T22:38:12.436Z,101770.94
2022-09-05T22:40:42.154Z,101773.22
2022-09-05T22:43:10.976Z,101765.47
2022-09-05T22:45:41.359Z,101761.91
2022-09-05T22:48:14.077Z,101764.34
2022-09-05T22:50:42.706Z,101761.03
2022-09-05T22:53:10.398Z,101755.34
2022-09-05T22:55:40.225Z,101755.03
2022-09-05T22:58:10.295Z,101758.25
2022-09-05T23:00:37.700Z,101765.38
2022-09-05T23:03:06.899Z,101769.81
2022-09-05T23:05:34.737Z,101769.97
2022-09-05T23:08:04.206Z,101775.19
2022-09-05T23:10:31.992Z,101782.34
2022-09-05T23:13:02.399Z,101772.97
2022-09-05T23:15:29.343Z,101777.09
2022-09-05T23:17:58.999Z,101786.16
2022-09-05T23:20:29.980Z,101784.97
2022-09-05T23:23:01.324Z,101795.50
2022-09-05T23:25:28.233Z,101789.31
2022-09-05T23:27:55.200Z,101786.34
2022-09-05T23:30:22.148Z,101776.59
2022-09-05T23:32:51.483Z,101774.94
2022-09-05T23:35:19.992Z,101773.09
2022-09-05T23:37:48.262Z,101761.09
2022-09-05T23:40:19.928Z,101748.59
2022-09-05T23:42:57.755Z,101745.66
2022-09-05T23:45:26.666Z,101746.72
2022-09-05T23:47:53.957Z,101739.34
2022-09-05T23:50:21.081Z,101729.25
2022-09-05T23:52:48.351Z,101735.38
2022-09-05T23:55:18.892Z,101720.78
2022-09-05T23:57:46.351Z,101719.63
